Date,TemperatureHighF,TemperatureAvgF,TemperatureLowF,DewpointHighF,DewpointAvgF,DewpointLowF,HumidityHigh,HumidityAvg,HumidityLow,PressureMaxIn,PressureMinIn,WindSpeedMaxMPH,WindSpeedAvgMPH,GustSpeedMaxMPH,PrecipitationSumIn
2013-6-1,83.0,77.1,73.3,76.9,74.4,72.2,97,92,80,30.04,29.97,7,3,10,1.21
2013-6-2,86.8,78.4,71.4,77.7,73.8,70.8,99,86,68,30.02,29.94,9,2,11,0.00
2013-6-3,86.2,78.6,73.2,76.9,74.2,71.1,96,87,64,30.05,29.93,9,2,12,0.32
2013-6-4,84.2,78.2,72.5,76.7,74.4,70.9,98,89,70,30.06,29.97,6,2,8,0.17
2013-6-5,83.3,80.9,79.2,77.3,76.3,74.4,89,86,81,30.03,29.91,8,4,12,0.00
2013-6-6,86.0,79.9,75.2,79.8,76.3,72.1,99,89,80,29.92,29.80,14,8,22,0.84
2013-6-7,89.2,77.7,73.3,78.2,74.0,71.7,97,89,67,30.01,29.86,9,4,15,0.73
2013-6-8,86.3,79.7,74.1,80.1,76.1,72.9,97,89,76,30.12,29.98,8,3,11,0.16
2013-6-9,86.0,82.2,79.6,77.1,75.5,73.8,90,80,72,30.13,30.05,9,6,14,0.00
2013-6-10,85.8,82.6,80.2,78.1,76.4,74.7,88,82,74,30.11,30.02,8,5,12,0.00
2013-6-11,86.7,81.7,78.2,78.4,76.6,74.0,94,85,68,30.11,30.02,7,4,9,0.20
2013-6-12,87.1,80.8,76.9,78.2,76.5,75.3,96,87,72,30.09,30.03,5,2,9,0.00
2013-6-13,88.8,80.2,74.7,77.2,74.7,70.8,98,84,56,30.07,29.96,7,2,10,0.01
2013-6-14,90.9,80.2,74.4,77.3,73.8,71.6,95,82,56,29.99,29.89,9,3,16,0.17
2013-6-15,87.6,81.1,74.8,76.8,75.1,73.5,97,83,65,30.07,29.94,6,2,10,0.01
2013-6-16,87.9,82.4,75.5,79.0,76.2,73.7,95,82,70,30.11,30.03,6,3,11,0.05
2013-6-17,88.1,84.0,80.5,78.1,76.2,74.0,84,78,70,30.10,30.02,7,4,11,0.00
2013-6-18,88.1,84.2,80.6,77.6,76.4,75.2,86,78,68,30.09,30.00,7,4,11,0.00
2013-6-19,88.4,83.5,78.6,77.6,76.3,75.4,91,79,67,30.06,30.00,8,4,12,0.00
2013-6-20,88.1,80.7,69.7,78.7,74.7,68.3,98,83,68,30.10,30.03,11,3,11,2.01
2013-6-21,88.3,83.8,80.8,76.6,74.9,72.7,85,75,66,30.13,30.04,7,4,11,0.00
2013-6-22,87.0,83.2,79.9,76.0,74.7,73.2,84,76,68,30.12,30.05,8,4,13,0.00
2013-6-23,87.0,83.1,79.1,77.5,74.8,72.3,85,76,65,30.14,30.06,9,5,14,0.04
2013-6-24,86.6,83.2,77.3,76.4,74.7,72.4,86,76,69,30.18,30.09,8,6,15,0.01
2013-6-25,86.8,82.7,79.9,78.1,75.8,73.6,86,80,70,30.14,30.05,8,5,11,0.00
2013-6-26,88.0,83.3,79.7,77.1,75.7,73.8,86,78,66,30.10,30.02,7,4,11,0.06
2013-6-27,88.0,82.3,77.5,78.1,75.7,72.3,92,81,69,30.07,29.97,6,2,9,0.05
2013-6-28,87.0,80.3,73.4,78.4,74.9,70.6,96,84,69,30.01,29.88,9,3,14,1.16
2013-6-29,87.9,80.5,73.7,78.2,75.4,71.3,97,85,69,29.94,29.84,9,2,18,0.04
2013-6-30,87.2,81.5,77.5,77.8,75.3,73.6,91,82,66,29.96,29.87,13,6,20,0.03